Time;durP1;ratioP1;P1;durP2;ratioP2;P2;SDS_P1;SDS_P2;PMS_P1;PMS_P2;Temp;Humidity;BMP_temperature;BMP_pressure;BME280_temperature;BME280_humidity;BME280_pressure;Samples;Min_cycle;Max_cycle;Signal;HPM_P1;HPM_P2
2022/05/06 00:01:35;;;;;;;5.00;1.65;;;;;;;19.70;21.58;100460.16;5155150;27;20469;-67
2022/05/06 00:04:02;;;;;;;3.80;2.55;;;;;;;19.70;21.60;100460.16;5150156;27;20419;-73
2022/05/06 00:06:29;;;;;;;3.17;2.00;;;;;;;19.71;21.58;100456.47;5155350;27;20027;-73
2022/05/06 00:08:56;;;;;;;3.22;1.90;;;;;;;19.72;21.52;100457.31;5154201;27;20030;-69
2022/05/06 00:11:22;;;;;;;4.15;1.63;;;;;;;19.73;21.69;100465.22;5141827;27;20078;-68
2022/05/06 00:13:48;;;;;;;4.78;2.10;;;;;;;19.70;21.41;100460.16;5149707;27;20035;-70
2022/05/06 00:16:15;;;;;;;4.88;1.95;;;;;;;19.58;21.50;100461.41;5153534;27;20541;-68
2022/05/06 00:18:40;;;;;;;3.63;1.85;;;;;;;19.46;21.64;100460.81;5155714;27;20039;-67
2022/05/06 00:21:06;;;;;;;3.63;1.67;;;;;;;19.36;21.89;100460.91;5155903;27;20033;-69
2022/05/06 00:23:31;;;;;;;10.25;2.22;;;;;;;19.30;22.07;100461.56;5154519;27;20026;-68
2022/05/06 00:25:57;;;;;;;5.10;1.70;;;;;;;19.26;22.01;100469.06;5154978;27;20113;-69
2022/05/06 00:28:22;;;;;;;4.53;2.05;;;;;;;19.21;21.99;100464.16;5154980;27;20042;-69
2022/05/06 00:30:48;;;;;;;3.80;2.10;;;;;;;19.16;22.17;100469.16;5154604;27;20034;-69
2022/05/06 00:33:14;;;;;;;4.68;1.95;;;;;;;19.12;22.12;100465.09;5154803;27;20096;-68
2022/05/06 00:35:43;;;;;;;2.85;1.80;;;;;;;19.09;22.12;100460.03;5154923;27;20519;-66
2022/05/06 00:38:09;;;;;;;3.35;1.75;;;;;;;19.05;22.07;100464.84;5154866;27;20030;-68
2022/05/06 00:40:34;;;;;;;4.15;2.58;;;;;;;18.99;22.26;100460.09;5155069;27;20501;-68
2022/05/06 00:42:59;;;;;;;5.90;2.00;;;;;;;18.97;22.24;100467.44;5154345;27;20042;-68
2022/05/06 00:45:34;;;;;;;5.03;2.40;;;;;;;18.96;22.37;100459.56;5154750;27;20046;-70
2022/05/06 00:48:00;;;;;;;4.00;2.28;;;;;;;18.91;22.21;100460.00;5154619;27;20039;-68
2022/05/06 00:50:25;;;;;;;4.35;2.47;;;;;;;18.88;22.19;100463.84;5154649;27;20111;-67
2022/05/06 00:52:51;;;;;;;3.17;1.83;;;;;;;18.87;22.22;100472.88;5154339;27;20034;-69
2022/05/06 00:55:16;;;;;;;3.85;2.20;;;;;;;18.86;22.34;100468.50;5155061;27;20035;-68
2022/05/06 00:57:43;;;;;;;3.85;2.08;;;;;;;18.86;22.33;100475.69;5154898;27;20481;-69
2022/05/06 01:00:18;;;;;;;2.72;1.95;;;;;;;18.84;22.38;100470.50;5155369;27;20034;-67
2022/05/06 01:02:44;;;;;;;4.85;2.40;;;;;;;18.82;22.36;100464.44;5140939;27;20109;-70
2022/05/06 01:05:09;;;;;;;5.03;2.05;;;;;;;18.81;22.33;100476.16;5133922;27;20126;-69
2022/05/06 01:07:36;;;;;;;5.32;2.20;;;;;;;18.79;22.33;100472.78;5134499;27;20224;-68
2022/05/06 01:10:02;;;;;;;4.00;2.55;;;;;;;18.76;22.48;100467.72;5134051;27;20034;-68
2022/05/06 01:12:28;;;;;;;4.95;2.30;;;;;;;18.75;22.44;100471.38;5133823;27;20023;-67
2022/05/06 01:14:54;;;;;;;4.60;2.15;;;;;;;18.74;22.48;100469.72;5144043;27;20034;-69
2022/05/06 01:17:19;;;;;;;3.45;2.35;;;;;;;18.70;22.27;100471.84;5153427;27;20027;-69
2022/05/06 01:19:45;;;;;;;6.25;1.92;;;;;;;18.69;22.25;100477.38;5146597;27;20490;-67
2022/05/06 01:22:11;;;;;;;5.72;2.72;;;;;;;18.69;22.51;100469.31;5134405;27;20413;-69
2022/05/06 01:24:37;;;;;;;5.10;2.10;;;;;;;18.67;22.32;100468.63;5133489;27;20041;-68
2022/05/06 01:27:04;;;;;;;3.92;2.03;;;;;;;18.69;22.45;100472.00;5141662;27;20026;-69
2022/05/06 01:29:33;;;;;;;3.40;2.28;;;;;;;18.70;22.44;100471.00;5154857;27;20378;-69
2022/05/06 01:32:00;;;;;;;3.67;2.22;;;;;;;18.70;22.71;100477.22;5154302;27;20111;-68
2022/05/06 01:34:29;;;;;;;3.10;2.22;;;;;;;18.69;22.64;100477.38;5154538;27;20047;-68
2022/05/06 01:36:57;;;;;;;4.03;2.00;;;;;;;18.67;22.64;100465.94;5154213;27;20058;-70
2022/05/06 01:39:29;;;;;;;3.63;2.72;;;;;;;18.66;22.60;100475.84;5134140;27;20062;-68
2022/05/06 01:41:58;;;;;;;2.92;1.80;;;;;;;18.65;22.79;100471.47;5134019;27;20031;-67
2022/05/06 01:44:29;;;;;;;4.13;1.90;;;;;;;18.66;22.51;100478.53;5133804;27;20027;-70
2022/05/06 01:46:58;;;;;;;3.58;2.10;;;;;;;18.62;22.49;100474.44;5133715;27;20042;-69
2022/05/06 01:49:25;;;;;;;3.72;1.95;;;;;;;18.63;22.61;100481.50;5133727;27;20115;-69
2022/05/06 01:51:53;;;;;;;4.97;1.77;;;;;;;18.61;22.61;100480.81;5133406;27;20096;-71
2022/05/06 01:54:18;;;;;;;3.45;2.10;;;;;;;18.61;22.47;100491.53;5133593;27;20039;-69
2022/05/06 01:56:46;;;;;;;2.70;1.80;;;;;;;18.61;22.66;100486.16;5134084;27;20034;-68
2022/05/06 01:59:13;;;;;;;4.40;3.00;;;;;;;18.61;22.62;100488.84;5133451;27;20038;-69
2022/05/06 02:01:39;;;;;;;3.50;2.20;;;;;;;18.62;22.54;100490.53;5134212;27;20031;-69
2022/05/06 02:06:48;;;;;;;3.10;2.28;;;;;;;18.61;22.62;100488.84;5154655;27;20123;-69
2022/05/06 02:09:15;;;;;;;4.45;1.70;;;;;;;18.61;22.68;100489.66;5154385;27;20549;-72
2022/05/06 02:11:40;;;;;;;7.53;2.47;;;;;;;18.60;22.54;100490.66;5153959;27;20504;-69
2022/05/06 02:14:06;;;;;;;4.40;2.30;;;;;;;18.59;22.75;100488.16;5154050;27;20034;-71
2022/05/06 02:16:31;;;;;;;3.15;2.22;;;;;;;18.60;22.75;100481.78;5154254;27;20578;-70
2022/05/06 02:18:57;;;;;;;5.68;2.33;;;;;;;18.59;22.66;100488.16;5153885;27;20034;-71
2022/05/06 02:21:22;;;;;;;3.10;2.25;;;;;;;18.60;22.72;100493.34;5154253;27;20030;-70
2022/05/06 02:23:48;;;;;;;5.90;2.00;;;;;;;18.53;22.67;100478.88;5155740;27;20037;-70
2022/05/06 02:26:13;;;;;;;3.35;1.92;;;;;;;18.59;22.69;100485.47;5158503;27;20162;-69
2022/05/06 02:28:39;;;;;;;3.22;1.63;;;;;;;18.59;22.81;100486.31;5158375;27;20479;-68
2022/05/06 02:33:48;;;;;;;3.50;1.85;;;;;;;18.58;22.87;100484.63;5158493;27;20045;-70
2022/05/06 02:36:14;;;;;;;3.95;2.03;;;;;;;18.57;22.85;100488.31;5155269;27;20034;-70
2022/05/06 02:38:39;;;;;;;5.00;2.05;;;;;;;18.59;22.65;100494.38;5137520;27;20050;-70
2022/05/06 02:41:06;;;;;;;4.43;1.95;;;;;;;18.58;22.82;100500.72;5137576;27;20034;-70
2022/05/06 02:43:31;;;;;;;3.47;2.08;;;;;;;18.56;22.80;100491.97;5155946;27;20027;-69
2022/05/06 02:45:57;;;;;;;5.22;2.13;;;;;;;18.56;22.90;100496.47;5158701;27;20378;-69
2022/05/06 02:48:22;;;;;;;4.47;2.58;;;;;;;18.56;23.03;100510.75;5138257;27;20118;-68
2022/05/06 02:50:48;;;;;;;4.72;2.38;;;;;;;18.54;22.97;100507.34;5136679;27;20066;-70
2022/05/06 02:53:13;;;;;;;3.65;1.58;;;;;;;18.57;23.07;100508.88;5157506;27;20041;-70
2022/05/06 02:55:39;;;;;;;3.42;2.05;;;;;;;18.55;23.00;100503.69;5156109;27;20037;-70
2022/05/06 02:58:06;;;;;;;3.72;2.35;;;;;;;18.58;23.05;100514.13;5156713;27;20473;-68
2022/05/06 03:00:31;;;;;;;7.05;2.08;;;;;;;18.58;23.00;100511.44;5157354;27;20041;-69
2022/05/06 03:02:57;;;;;;;3.08;1.70;;;;;;;18.60;22.91;100506.75;5157327;27;20030;-69
2022/05/06 03:05:26;;;;;;;7.05;2.10;;;;;;;18.61;23.00;100515.66;5158074;27;20035;-68
2022/05/06 03:07:51;;;;;;;2.58;1.65;;;;;;;18.60;23.19;100509.44;5146796;27;20043;-69
2022/05/06 03:10:17;;;;;;;3.35;1.60;;;;;;;18.66;23.24;100512.50;5141273;27;20453;-68
2022/05/06 03:12:43;;;;;;;4.38;1.92;;;;;;;18.74;23.20;100513.44;5157189;27;20469;-69
2022/05/06 03:15:09;;;;;;;2.50;1.75;;;;;;;18.83;23.01;100514.38;5157810;27;20031;-70
2022/05/06 03:17:35;;;;;;;3.38;1.90;;;;;;;18.97;22.95;100523.75;5157426;27;20274;-68
2022/05/06 03:20:04;;;;;;;2.35;1.77;;;;;;;19.13;22.92;100520.44;5155436;27;20102;-70
2022/05/06 03:22:44;;;;;;;3.17;1.70;;;;;;;19.34;22.66;100514.75;5148975;27;20027;-69
2022/05/06 03:25:10;;;;;;;3.60;1.90;;;;;;;19.53;22.53;100526.31;5137099;27;20027;-70
2022/05/06 03:30:20;;;;;;;3.55;1.95;;;;;;;19.84;22.45;100517.81;5136884;27;20457;-68
2022/05/06 03:32:46;;;;;;;2.95;1.60;;;;;;;19.94;22.11;100518.59;5145844;27;20035;-70
2022/05/06 03:35:12;;;;;;;7.40;2.08;;;;;;;20.00;22.28;100522.47;5154702;27;20133;-67
2022/05/06 03:37:38;;;;;;;3.95;1.85;;;;;;;20.06;22.00;100524.53;5136134;27;20070;-71
2022/05/06 03:40:05;;;;;;;2.67;1.73;;;;;;;20.12;21.92;100528.44;5136146;27;20042;-70
2022/05/06 03:42:30;;;;;;;2.83;1.83;;;;;;;20.20;21.86;100527.63;5154965;27;20114;-72
2022/05/06 03:44:56;;;;;;;3.95;1.92;;;;;;;20.24;21.87;100523.59;5157268;27;20064;-72
2022/05/06 03:47:21;;;;;;;2.80;1.90;;;;;;;20.28;21.89;100522.28;5156633;27;20046;-72
2022/05/06 03:51:20;;;;;;;2.40;1.50;;;;;;;20.34;21.80;100537.78;5141158;27;20038;-71
2022/05/06 03:52:34;;;;;;;8.25;2.42;;;;;;;20.46;21.79;100532.94;5139724;27;20082;-69
2022/05/06 03:55:00;;;;;;;3.10;2.10;;;;;;;20.54;21.45;100535.69;5153832;27;20138;-70
2022/05/06 03:57:25;;;;;;;4.47;2.13;;;;;;;20.61;21.33;100535.88;5154552;27;20038;-69
2022/05/06 03:59:50;;;;;;;3.70;1.60;;;;;;;20.63;21.54;100541.94;5156509;27;20073;-70
2022/05/06 04:02:16;;;;;;;5.45;2.22;;;;;;;20.65;21.77;100534.56;5137994;27;20031;-70
2022/05/06 04:04:42;;;;;;;3.85;2.00;;;;;;;20.66;21.45;100540.78;5135791;27;20447;-71
2022/05/06 04:07:07;;;;;;;2.72;1.75;;;;;;;20.68;21.51;100536.06;5136492;27;20104;-69
2022/05/06 04:09:33;;;;;;;4.07;2.42;;;;;;;20.68;21.65;100542.28;5135740;27;20045;-71
2022/05/06 04:11:59;;;;;;;9.32;2.92;;;;;;;20.68;21.61;100541.47;5152388;27;20026;-68
2022/05/06 04:14:25;;;;;;;4.10;1.95;;;;;;;20.70;21.54;100542.97;5139534;27;20058;-69
2022/05/06 04:16:51;;;;;;;4.55;2.25;;;;;;;20.71;21.69;100550.03;5135271;27;20037;-68
2022/05/06 04:19:16;;;;;;;3.60;1.67;;;;;;;20.70;21.73;100542.97;5135905;27;20035;-68
2022/05/06 04:24:26;;;;;;;4.22;2.10;;;;;;;20.64;21.68;100540.94;5135425;27;20046;-69
2022/05/06 04:26:51;;;;;;;6.32;2.08;;;;;;;20.61;21.91;100537.72;5134813;27;20030;-69
2022/05/06 04:29:17;;;;;;;6.95;2.60;;;;;;;20.59;21.86;100541.41;5135565;27;20415;-67
2022/05/06 04:31:43;;;;;;;6.78;2.30;;;;;;;20.61;21.86;100549.31;5134520;27;20076;-66
2022/05/06 04:34:08;;;;;;;8.48;2.35;;;;;;;20.60;21.79;100544.97;5135295;27;20031;-71
2022/05/06 04:36:34;;;;;;;3.65;2.17;;;;;;;20.62;21.99;100551.03;5135805;27;20095;-69
2022/05/06 04:39:00;;;;;;;6.72;2.47;;;;;;;20.61;21.76;100557.41;5135228;27;20035;-72
2022/05/06 04:41:26;;;;;;;5.80;2.25;;;;;;;20.60;22.04;100558.41;5134630;27;20034;-69
2022/05/06 04:43:51;;;;;;;5.60;2.55;;;;;;;20.57;21.95;100548.81;5141488;27;20035;-69
2022/05/06 04:46:17;;;;;;;4.90;1.95;;;;;;;20.56;22.19;100551.66;5134677;27;20500;-69
2022/05/06 04:48:42;;;;;;;3.60;2.40;;;;;;;20.56;22.05;100557.03;5134680;27;20062;-68
2022/05/06 04:51:08;;;;;;;4.13;2.15;;;;;;;20.52;22.12;100551.13;5134828;27;20047;-68
2022/05/06 04:53:33;;;;;;;5.25;2.10;;;;;;;20.51;22.15;100552.13;5146927;27;20601;-67
2022/05/06 04:55:59;;;;;;;10.45;2.38;;;;;;;20.49;22.26;100545.25;5155575;27;20045;-68
2022/05/06 04:58:24;;;;;;;3.83;2.45;;;;;;;20.47;22.27;100544.56;5140650;27;20039;-71
2022/05/06 05:00:50;;;;;;;4.28;2.10;;;;;;;20.47;22.45;100556.16;5134366;27;20042;-70
2022/05/06 05:03:15;;;;;;;3.58;2.10;;;;;;;20.48;22.60;100548.94;5139550;27;20537;-70
2022/05/06 05:05:41;;;;;;;4.53;1.70;;;;;;;20.50;22.45;100557.69;5155369;27;20041;-69
2022/05/06 05:08:09;;;;;;;6.32;2.30;;;;;;;20.50;22.36;100560.38;5153092;27;20033;-69
2022/05/06 05:10:34;;;;;;;8.95;2.90;;;;;;;20.48;22.05;100557.00;5155779;27;20389;-71
2022/05/06 05:13:00;;;;;;;6.97;2.42;;;;;;;20.49;22.29;100559.53;5144727;27;20038;-71
2022/05/06 05:15:26;;;;;;;5.13;2.28;;;;;;;20.52;22.41;100555.66;5152157;27;20049;-69
2022/05/06 05:17:51;;;;;;;7.97;2.35;;;;;;;20.54;22.50;100562.56;5147673;27;20065;-68
2022/05/06 05:20:17;;;;;;;6.10;2.03;;;;;;;20.54;22.50;100554.50;5134321;27;20113;-70
2022/05/06 05:22:43;;;;;;;9.35;2.42;;;;;;;20.57;22.26;100558.72;5133642;27;20035;-68
2022/05/06 05:25:09;;;;;;;5.13;2.20;;;;;;;20.56;22.45;100560.56;5134476;27;20035;-68
2022/05/06 05:27:38;;;;;;;8.18;2.58;;;;;;;20.55;22.60;100569.66;5135311;27;20055;-68
2022/05/06 05:30:08;;;;;;;4.20;2.50;;;;;;;20.52;22.72;100564.59;5134246;27;20109;-69
2022/05/06 05:32:35;;;;;;;7.43;2.60;;;;;;;20.53;22.61;100566.28;5153686;27;20058;-71
2022/05/06 05:35:01;;;;;;;6.07;2.33;;;;;;;20.55;22.46;100571.47;5154398;27;20037;-69
2022/05/06 05:37:26;;;;;;;6.22;2.10;;;;;;;20.56;22.97;100562.41;5152338;27;20034;-70
2022/05/06 05:39:52;;;;;;;8.25;2.25;;;;;;;20.57;22.75;100570.31;5135816;27;20453;-68
2022/05/06 05:42:22;;;;;;;8.23;2.58;;;;;;;20.58;22.64;100569.31;5154485;27;20053;-69
2022/05/06 05:50:15;;;;;;;7.25;2.88;;;;;;;20.63;22.83;100571.53;5133379;27;20133;-69
2022/05/06 05:52:40;;;;;;;8.48;3.22;;;;;;;20.67;22.63;100572.03;5142497;27;20105;-70
2022/05/06 05:55:06;;;;;;;7.78;3.15;;;;;;;20.67;22.69;100578.25;5152306;27;20481;-70
2022/05/06 05:57:32;;;;;;;6.07;2.80;;;;;;;20.72;22.85;100570.53;5154236;27;20034;-70
2022/05/06 05:59:57;;;;;;;5.60;2.47;;;;;;;20.76;22.54;100565.72;5154090;27;20445;-68
2022/05/06 06:02:23;;;;;;;9.75;2.58;;;;;;;20.80;22.74;100580.53;5153229;27;20447;-70
2022/05/06 06:04:49;;;;;;;6.97;2.83;;;;;;;20.83;22.68;100571.28;5154517;27;20106;-68
2022/05/06 06:07:15;;;;;;;6.03;2.75;;;;;;;20.87;22.77;100569.94;5152540;27;20055;-71
2022/05/06 06:09:40;;;;;;;6.20;2.25;;;;;;;20.93;22.72;100573.84;5153951;27;20054;-68
2022/05/06 06:12:06;;;;;;;5.88;2.30;;;;;;;20.96;22.70;100568.97;5134925;27;20031;-69
2022/05/06 06:14:32;;;;;;;5.50;2.28;;;;;;;20.98;22.63;100580.41;5151700;27;20540;-72
2022/05/06 06:16:57;;;;;;;3.63;2.60;;;;;;;21.02;22.47;100579.09;5151305;27;20117;-68
2022/05/06 06:19:23;;;;;;;6.75;2.60;;;;;;;21.05;22.56;100575.22;5133363;28;20123;-68
2022/05/06 06:21:49;;;;;;;7.25;2.50;;;;;;;21.10;22.42;100577.44;5134686;27;20031;-68
2022/05/06 06:24:15;;;;;;;7.20;2.95;;;;;;;21.14;22.50;100579.63;5140217;27;20069;-69
2022/05/06 06:26:40;;;;;;;22.05;5.25;;;;;;;21.18;22.42;100578.28;5154140;27;20509;-69
2022/05/06 06:29:06;;;;;;;10.30;1.88;;;;;;;21.24;22.38;100584.00;5153976;27;20541;-68
2022/05/06 06:31:32;;;;;;;4.82;2.10;;;;;;;21.27;22.31;100571.06;5153721;27;20119;-67
2022/05/06 06:34:01;;;;;;;4.45;2.28;;;;;;;21.29;22.32;100577.13;5153130;27;20062;-69
2022/05/06 06:36:27;;;;;;;6.47;2.10;;;;;;;21.34;22.30;100580.16;5154041;27;20424;-69
2022/05/06 06:38:53;;;;;;;8.05;3.38;;;;;;;21.38;22.17;100577.97;5152016;27;20042;-69
2022/05/06 06:41:20;;;;;;;4.18;2.15;;;;;;;21.42;22.14;100579.34;5141909;27;20029;-67
2022/05/06 06:43:49;;;;;;;10.82;2.80;;;;;;;21.47;22.38;100584.22;5133275;28;20086;-70
2022/05/06 06:46:15;;;;;;;5.82;2.60;;;;;;;21.50;22.06;100581.19;5133285;28;20031;-71
2022/05/06 06:48:41;;;;;;;3.50;2.35;;;;;;;21.51;22.11;100569.41;5136721;27;20038;-69
2022/05/06 06:51:07;;;;;;;9.82;2.65;;;;;;;21.56;22.03;100577.81;5132835;28;20075;-70
2022/05/06 06:53:33;;;;;;;4.97;2.30;;;;;;;21.59;22.16;100577.47;5146594;27;20061;-68
2022/05/06 06:55:58;;;;;;;8.30;2.88;;;;;;;21.61;22.15;100577.38;5152048;27;20042;-68
2022/05/06 06:58:25;;;;;;;6.30;2.85;;;;;;;21.66;22.04;100574.16;5138971;27;20110;-68
2022/05/06 07:00:51;;;;;;;6.97;2.50;;;;;;;21.72;21.90;100570.78;5133227;27;20092;-71
2022/05/06 07:03:16;;;;;;;5.72;2.25;;;;;;;21.75;22.06;100574.00;5137406;27;20023;-69
2022/05/06 07:11:52;;;;;;;8.25;2.42;;;;;;;21.81;22.00;100572.47;5142605;27;20027;-67
2022/05/06 07:13:57;;;;;;;7.72;2.00;;;;;;;21.98;21.83;100569.78;5141843;27;20033;-71
2022/05/06 07:16:23;;;;;;;7.53;2.47;;;;;;;22.03;22.05;100575.47;5150436;27;20035;-68
2022/05/06 07:18:50;;;;;;;4.47;2.10;;;;;;;22.02;22.27;100574.66;5137053;27;20034;-70
2022/05/06 07:21:15;;;;;;;6.72;2.40;;;;;;;22.01;22.29;100567.56;5138945;27;20401;-69
2022/05/06 07:23:41;;;;;;;22.58;2.85;;;;;;;22.00;22.49;100568.59;5146649;27;20033;-73
2022/05/06 07:26:06;;;;;;;5.68;2.55;;;;;;;22.01;22.44;100566.72;5151275;27;20501;-69
2022/05/06 07:28:32;;;;;;;3.92;2.25;;;;;;;22.01;22.56;100564.00;5154238;27;20042;-69
2022/05/06 07:30:57;;;;;;;4.20;2.40;;;;;;;22.02;22.57;100563.88;5147905;27;20062;-69
2022/05/06 07:33:23;;;;;;;7.95;2.92;;;;;;;22.03;22.39;100564.69;5156358;27;20053;-68
2022/05/06 07:35:48;;;;;;;6.57;2.88;;;;;;;22.04;22.50;100559.16;5147248;27;20053;-69
2022/05/06 07:38:14;;;;;;;5.47;2.22;;;;;;;22.06;22.61;100564.34;5147843;27;20053;-72
2022/05/06 07:40:39;;;;;;;2.92;2.13;;;;;;;22.07;22.62;100568.75;5149905;27;20058;-70
2022/05/06 07:43:05;;;;;;;6.93;2.90;;;;;;;22.08;22.48;100559.63;5154808;27;20083;-71
2022/05/06 07:45:31;;;;;;;6.65;1.65;;;;;;;22.12;22.70;100571.78;5151950;27;20115;-69
2022/05/06 07:47:57;;;;;;;6.05;2.35;;;;;;;22.13;22.50;100564.50;5141520;27;20031;-72
2022/05/06 07:50:23;;;;;;;3.25;1.92;;;;;;;22.15;22.41;100557.09;5136190;27;20058;-70
2022/05/06 07:52:50;;;;;;;3.60;1.92;;;;;;;22.16;22.50;100556.91;5118527;27;20035;-71
2022/05/06 07:55:19;;;;;;;4.22;2.08;;;;;;;22.19;22.57;100553.06;5135797;27;20046;-68
2022/05/06 07:57:45;;;;;;;2.80;1.75;;;;;;;22.22;22.06;100550.84;5136738;27;20038;-69
2022/05/06 08:00:11;;;;;;;3.20;2.00;;;;;;;22.27;22.17;100541.41;5136010;27;20454;-71
2022/05/06 08:05:22;;;;;;;7.47;2.08;;;;;;;22.27;22.10;100541.41;5135899;27;20509;-70
2022/05/06 08:07:48;;;;;;;5.07;2.50;;;;;;;22.25;22.05;100545.13;5146018;27;20507;-70
2022/05/06 08:10:14;;;;;;;8.27;2.38;;;;;;;22.24;22.07;100538.03;5156330;27;20034;-69
2022/05/06 08:12:39;;;;;;;3.88;2.22;;;;;;;22.21;22.14;100543.78;5155731;27;20046;-69
2022/05/06 08:15:05;;;;;;;3.63;2.40;;;;;;;22.20;22.10;100544.78;5154635;27;20072;-68
2022/05/06 08:17:30;;;;;;;6.07;2.55;;;;;;;22.19;22.15;100539.56;5155101;27;20034;-69
2022/05/06 08:19:56;;;;;;;3.65;2.15;;;;;;;22.15;22.14;100527.44;5156351;27;20037;-69
2022/05/06 08:22:21;;;;;;;4.30;1.90;;;;;;;22.15;22.05;100519.38;5155600;27;20396;-70
2022/05/06 08:24:47;;;;;;;3.85;2.10;;;;;;;22.15;22.07;100525.56;5153101;27;20102;-68
2022/05/06 08:27:13;;;;;;;3.72;1.90;;;;;;;22.18;22.21;100525.25;5136166;27;20477;-73
2022/05/06 08:29:40;;;;;;;3.58;1.80;;;;;;;22.23;22.05;100525.56;5135229;27;20031;-70
2022/05/06 08:32:06;;;;;;;2.85;1.77;;;;;;;22.24;21.98;100521.88;5149246;27;20046;-71
2022/05/06 08:34:32;;;;;;;5.25;1.88;;;;;;;22.25;22.00;100522.69;5155318;27;20533;-72
2022/05/06 08:36:57;;;;;;;5.53;2.08;;;;;;;22.25;22.07;100520.00;5155841;27;20034;-72
2022/05/06 08:39:23;;;;;;;3.38;1.83;;;;;;;22.23;22.13;100517.50;5155583;27;20069;-72
2022/05/06 08:41:49;;;;;;;4.35;2.20;;;;;;;22.25;21.98;100518.16;5155717;27;20031;-70
2022/05/06 08:52:43;;;;;;;11.40;9.18;;;;;;;22.43;22.03;100509.00;5139659;27;20091;-69
2022/05/06 08:55:08;;;;;;;24.75;16.88;;;;;;;22.46;22.12;100514.06;5149172;27;20027;-71
2022/05/06 08:57:35;;;;;;;29.45;18.75;;;;;;;22.59;22.48;100518.88;5144521;27;20035;-70
2022/05/06 09:00:01;;;;;;;69.18;24.67;;;;;;;22.71;22.51;100511.25;5153431;27;21625;-71
2022/05/06 09:02:26;;;;;;;96.10;29.92;;;;;;;22.82;22.55;100518.09;5141691;27;20038;-71
2022/05/06 09:04:52;;;;;;;86.95;29.25;;;;;;;22.94;22.55;100524.75;5138911;27;20058;-70
2022/05/06 09:07:22;;;;;;;84.13;26.33;;;;;;;23.05;22.72;100512.72;5154974;27;20425;-69
2022/05/06 09:10:09;;;;;;;82.18;27.30;;;;;;;23.14;22.63;100519.75;5154572;27;20031;-71
2022/05/06 09:12:41;;;;;;;78.28;25.05;;;;;;;23.22;22.43;100515.34;5154315;27;20114;-72
2022/05/06 09:17:52;;;;;;;63.05;19.13;;;;;;;23.35;22.10;100512.03;5155411;27;20069;-72
2022/05/06 09:20:19;;;;;;;53.97;19.83;;;;;;;23.41;22.09;100506.75;5155193;27;20061;-73
2022/05/06 09:22:45;;;;;;;47.20;15.75;;;;;;;23.43;22.11;100502.00;5153271;27;20034;-71
2022/05/06 09:25:10;;;;;;;38.13;15.55;;;;;;;23.45;22.11;100501.81;5154826;27;20050;-72
2022/05/06 09:27:35;;;;;;;36.47;14.02;;;;;;;23.53;22.23;100506.31;5154205;27;20030;-70
2022/05/06 09:30:11;;;;;;;34.13;12.32;;;;;;;23.58;21.79;100509.31;5154674;27;20030;-71
2022/05/06 09:32:36;;;;;;;33.97;10.85;;;;;;;23.62;21.78;100510.59;5142091;27;20506;-71
2022/05/06 09:35:09;;;;;;;24.88;10.45;;;;;;;23.67;21.78;100516.31;5133944;27;20066;-71
2022/05/06 09:37:43;;;;;;;23.65;9.05;;;;;;;23.70;21.57;100505.16;5133950;27;20524;-71
2022/05/06 09:40:20;;;;;;;19.92;7.28;;;;;;;23.69;21.74;100503.47;5133857;27;20087;-73
2022/05/06 09:42:57;;;;;;;25.85;8.93;;;;;;;23.68;21.78;100512.59;5147306;27;20023;-70
2022/05/06 09:45:33;;;;;;;19.10;7.50;;;;;;;23.73;21.83;100504.78;5154153;27;20037;-70
2022/05/06 09:48:03;;;;;;;17.00;6.60;;;;;;;23.79;21.58;100503.19;5147134;27;20081;-71
2022/05/06 09:50:31;;;;;;;14.32;6.10;;;;;;;23.84;21.63;100505.34;5153029;27;20062;-73
2022/05/06 09:53:02;;;;;;;20.17;7.13;;;;;;;23.85;21.36;100494.34;5142046;27;20039;-73
2022/05/06 09:55:29;;;;;;;16.02;5.80;;;;;;;23.85;21.42;100493.50;5133907;27;20062;-72
2022/05/06 09:57:59;;;;;;;20.67;6.90;;;;;;;23.84;21.04;100492.66;5153683;27;20054;-73
2022/05/06 10:00:25;;;;;;;12.07;4.93;;;;;;;23.74;21.14;100490.25;5150975;27;20026;-71
2022/05/06 10:02:51;;;;;;;13.02;4.57;;;;;;;23.68;21.18;100499.09;5133558;27;20038;-71
2022/05/06 10:05:17;;;;;;;10.65;5.50;;;;;;;23.59;21.14;100492.91;5133018;27;20035;-70
2022/05/06 10:07:46;;;;;;;10.20;5.05;;;;;;;23.54;21.32;100499.88;5133800;27;20123;-72
2022/05/06 10:10:25;;;;;;;10.90;4.40;;;;;;;23.47;21.24;100487.09;5145858;27;20029;-70
2022/05/06 10:13:01;;;;;;;11.80;5.50;;;;;;;23.43;21.34;100487.66;5153236;27;20068;-72
2022/05/06 10:15:29;;;;;;;13.18;5.05;;;;;;;23.41;21.21;100484.28;5153439;27;20077;-69
2022/05/06 10:17:57;;;;;;;10.32;3.63;;;;;;;23.38;21.23;100479.28;5130939;28;20453;-71
2022/05/06 10:20:44;;;;;;;12.57;3.95;;;;;;;23.34;21.25;100476.09;5133705;28;20156;-70
2022/05/06 10:23:15;;;;;;;12.18;4.47;;;;;;;23.32;21.37;100483.53;5143679;27;20072;-69
2022/05/06 10:25:41;;;;;;;10.75;4.20;;;;;;;23.34;21.54;100477.97;5143088;27;20028;-72
2022/05/06 10:34:08;;;;;;;10.18;4.03;;;;;;;23.34;21.52;100470.69;5154495;27;20576;-71
2022/05/06 10:36:44;;;;;;;9.88;3.38;;;;;;;23.36;21.29;100471.34;5153786;27;20065;-72
2022/05/06 10:39:32;;;;;;;6.68;3.13;;;;;;;23.35;21.24;100464.25;5153289;27;20588;-70
2022/05/06 10:42:00;;;;;;;9.75;3.75;;;;;;;23.32;21.29;100470.03;5153884;27;20025;-70
2022/05/06 10:44:47;;;;;;;6.22;2.97;;;;;;;23.28;21.48;100460.63;5155090;27;20438;-68
2022/05/06 10:47:12;;;;;;;6.75;3.30;;;;;;;23.26;21.58;100466.19;5156057;27;20049;-68
2022/05/06 10:49:37;;;;;;;6.28;3.30;;;;;;;23.30;21.63;100472.91;5158011;27;20400;-70
2022/05/06 10:52:28;;;;;;;6.28;3.42;;;;;;;23.34;21.37;100467.16;5156211;27;20398;-72
2022/05/06 10:54:55;;;;;;;5.93;2.97;;;;;;;23.30;21.46;100459.41;5141034;27;20037;-71
2022/05/06 10:57:23;;;;;;;5.63;2.75;;;;;;;23.28;21.25;100460.63;5157875;27;20038;-71
2022/05/06 11:00:19;;;;;;;6.20;2.97;;;;;;;23.26;21.35;100452.69;5157223;27;20114;-68
2022/05/06 11:02:45;;;;;;;6.57;2.67;;;;;;;23.25;21.55;100453.72;5116655;27;20068;-70
2022/05/06 11:05:14;;;;;;;7.10;3.42;;;;;;;23.25;21.50;100448.31;5157404;27;20045;-70
2022/05/06 11:07:41;;;;;;;5.05;3.15;;;;;;;23.23;21.74;100444.97;5153434;27;20027;-69
2022/05/06 11:10:18;;;;;;;7.40;3.08;;;;;;;23.25;21.56;100447.47;5136673;27;20035;-69
2022/05/06 11:12:48;;;;;;;7.22;3.03;;;;;;;23.26;21.76;100435.66;5136440;27;20030;-72
2022/05/06 11:15:16;;;;;;;7.13;3.20;;;;;;;23.32;21.58;100437.63;5152117;27;20037;-72
2022/05/06 11:17:44;;;;;;;6.38;3.10;;;;;;;23.32;21.56;100437.63;5157022;27;20112;-70
2022/05/06 11:20:30;;;;;;;6.45;3.03;;;;;;;23.33;21.71;100435.78;5139684;27;20385;-69
2022/05/06 11:23:05;;;;;;;4.45;3.00;;;;;;;23.28;21.49;100418.25;5156796;27;20031;-70
2022/05/06 11:25:39;;;;;;;5.57;2.83;;;;;;;23.33;21.65;100431.19;5157305;27;20105;-70
2022/05/06 11:28:25;;;;;;;6.45;3.30;;;;;;;23.38;21.71;100434.19;5157118;27;20042;-69
2022/05/06 11:30:52;;;;;;;4.93;2.97;;;;;;;23.40;21.82;100437.56;5156856;27;20047;-71
2022/05/06 11:33:24;;;;;;;7.88;2.80;;;;;;;23.40;21.48;100426.75;5157001;27;20037;-68
2022/05/06 11:35:50;;;;;;;4.40;2.90;;;;;;;23.36;21.35;100430.00;5157252;27;20026;-72
2022/05/06 11:38:28;;;;;;;6.38;2.75;;;;;;;23.33;21.37;100425.78;5156906;27;20034;-70
2022/05/06 11:40:54;;;;;;;4.95;3.03;;;;;;;23.30;21.68;100418.91;5156785;27;20026;-72
2022/05/06 11:43:21;;;;;;;5.50;3.13;;;;;;;23.35;21.58;100412.94;5138267;27;20033;-72
2022/05/06 11:48:41;;;;;;;3.58;2.47;;;;;;;23.38;21.21;100412.59;5154323;27;20038;-72
2022/05/06 11:51:09;;;;;;;8.02;3.05;;;;;;;23.41;21.54;100400.56;5156457;27;20110;-71
2022/05/06 11:53:35;;;;;;;4.50;2.88;;;;;;;23.46;21.64;100408.97;5156085;27;20114;-73
2022/05/06 11:56:02;;;;;;;4.88;2.53;;;;;;;23.52;21.41;100408.25;5155724;27;20031;-71
2022/05/06 11:58:28;;;;;;;8.32;3.40;;;;;;;23.56;21.47;100422.22;5157077;27;20109;-72
2022/05/06 12:00:54;;;;;;;3.97;2.70;;;;;;;23.61;21.30;100415.22;5156447;27;20033;-71
2022/05/06 12:03:21;;;;;;;3.25;2.42;;;;;;;23.68;21.10;100417.16;5156427;27;20392;-70
2022/05/06 12:06:02;;;;;;;10.57;3.35;;;;;;;23.73;20.84;100410.22;5156251;27;20041;-69
2022/05/06 12:08:32;;;;;;;6.10;2.78;;;;;;;23.78;20.81;100398.84;5155956;27;20441;-70
2022/05/06 12:11:07;;;;;;;4.60;3.33;;;;;;;23.82;20.74;100400.16;5156321;27;20031;-71